createdAt,value
2023-06-17T00:04:05.262Z,17.70
2023-06-17T00:09:58.781Z,17.70
2023-06-17T00:15:58.266Z,17.70
2023-06-17T00:21:52.119Z,17.60
2023-06-17T00:27:45.670Z,17.50
2023-06-17T00:33:40.832Z,17.60
2023-06-17T00:39:34.779Z,17.50
2023-06-17T00:45:28.368Z,17.60
2023-06-17T00:51:23.349Z,17.50
2023-06-17T00:57:17.384Z,17.30
2023-06-17T01:03:11.008Z,17.30
2023-06-17T01:09:10.986Z,17.00
2023-06-17T01:15:05.131Z,17.10
2023-06-17T01:21:00.632Z,17.10
2023-06-17T01:26:58.136Z,17.30
2023-06-17T01:32:51.702Z,17.20
2023-06-17T01:38:49.248Z,17.20
2023-06-17T01:44:44.645Z,17.10
2023-06-17T01:50:40.198Z,17.20
2023-06-17T01:56:33.983Z,17.30
2023-06-17T02:02:28.975Z,17.40
2023-06-17T02:08:24.071Z,17.40
2023-06-17T02:14:18.666Z,17.40
2023-06-17T02:20:14.882Z,17.20
2023-06-17T02:26:08.491Z,17.10
2023-06-17T02:32:03.051Z,17.20
2023-06-17T02:37:58.261Z,17.10
2023-06-17T02:43:51.928Z,17.20
2023-06-17T02:49:45.367Z,17.10
2023-06-17T02:55:40.395Z,17.20
2023-06-17T03:01:44.666Z,17.00
2023-06-17T03:07:42.132Z,17.10
2023-06-17T03:13:38.170Z,17.10
2023-06-17T03:19:38.334Z,17.10
2023-06-17T03:25:33.122Z,17.20
2023-06-17T03:31:28.134Z,17.10
2023-06-17T03:37:22.136Z,17.10
2023-06-17T03:43:17.079Z,17.20
2023-06-17T03:49:12.384Z,17.20
2023-06-17T03:55:07.418Z,17.00
2023-06-17T04:01:01.051Z,17.10
2023-06-17T04:06:55.817Z,17.20
2023-06-17T04:12:49.328Z,17.20
2023-06-17T04:18:42.522Z,17.20
2023-06-17T04:24:39.666Z,17.20
2023-06-17T04:30:34.177Z,17.20
2023-06-17T04:36:28.790Z,17.20
2023-06-17T04:42:23.904Z,17.10
2023-06-17T04:48:17.162Z,17.10
2023-06-17T04:54:10.428Z,17.10
2023-06-17T05:00:07.988Z,17.10
2023-06-17T05:06:01.632Z,17.20
2023-06-17T05:11:56.917Z,17.10
2023-06-17T05:17:52.602Z,17.20
2023-06-17T05:23:46.335Z,17.20
2023-06-17T05:29:40.530Z,17.20
2023-06-17T05:35:36.588Z,17.20
2023-06-17T05:41:30.321Z,17.40
2023-06-17T05:47:24.519Z,17.30
2023-06-17T05:53:19.302Z,17.40
2023-06-17T05:59:13.059Z,17.40
2023-06-17T06:05:36.579Z,17.40
2023-06-17T06:11:31.125Z,17.40
2023-06-17T06:17:26.527Z,17.30
2023-06-17T06:23:19.844Z,17.40
2023-06-17T06:29:15.813Z,17.60
2023-06-17T06:35:10.947Z,17.60
2023-06-17T06:41:05.059Z,17.60
2023-06-17T06:47:04.762Z,17.80
2023-06-17T06:52:58.255Z,17.70
2023-06-17T06:58:57.717Z,17.80
2023-06-17T07:04:53.548Z,17.70
2023-06-17T07:10:53.747Z,17.70
2023-06-17T07:16:48.525Z,17.80
2023-06-17T07:22:44.035Z,18.00
2023-06-17T07:28:38.265Z,18.10
2023-06-17T07:34:32.364Z,18.20
2023-06-17T07:40:27.000Z,18.30
2023-06-17T07:46:20.680Z,18.30
2023-06-17T07:52:14.657Z,18.20
2023-06-17T07:58:09.876Z,18.40
2023-06-17T08:04:03.208Z,18.60
2023-06-17T08:09:56.507Z,18.80
2023-06-17T08:15:52.719Z,18.80
2023-06-17T08:21:46.604Z,18.60
2023-06-17T08:27:39.805Z,18.70
2023-06-17T08:33:34.435Z,18.80
2023-06-17T08:39:27.773Z,18.80
2023-06-17T08:45:23.237Z,19.00
2023-06-17T08:51:17.794Z,19.10
2023-06-17T08:57:14.016Z,19.40
2023-06-17T09:03:10.142Z,19.40
2023-06-17T09:09:05.038Z,19.50
2023-06-17T09:14:58.524Z,19.80
2023-06-17T09:20:53.268Z,20.40
2023-06-17T09:26:48.321Z,20.30
2023-06-17T09:32:42.743Z,20.30
2023-06-17T09:38:38.716Z,20.30
2023-06-17T09:44:33.139Z,20.60
2023-06-17T09:50:28.239Z,20.60
2023-06-17T09:56:21.480Z,21.00
2023-06-17T10:02:16.293Z,20.60
2023-06-17T10:08:09.494Z,20.60
2023-06-17T10:14:08.688Z,20.70
2023-06-17T10:20:08.944Z,21.30
2023-06-17T10:26:02.432Z,21.40
2023-06-17T10:31:55.875Z,21.30
2023-06-17T10:37:52.079Z,21.30
2023-06-17T10:43:45.336Z,21.70
2023-06-17T10:49:41.143Z,21.80
2023-06-17T10:55:35.648Z,21.70
2023-06-17T11:01:29.104Z,21.60
2023-06-17T11:07:28.315Z,21.60
2023-06-17T11:13:24.451Z,22.00
2023-06-17T11:19:18.002Z,21.80
2023-06-17T11:25:12.933Z,21.70
2023-06-17T11:31:08.796Z,22.40
2023-06-17T11:37:07.592Z,22.70
2023-06-17T11:43:02.065Z,22.60
2023-06-17T11:48:57.678Z,22.40
2023-06-17T11:54:50.930Z,22.50
2023-06-17T12:00:44.023Z,23.10
2023-06-17T12:06:38.495Z,23.20
2023-06-17T12:12:33.775Z,22.80
2023-06-17T12:18:30.868Z,23.40
2023-06-17T12:24:25.628Z,23.30
2023-06-17T12:30:19.918Z,23.60
2023-06-17T12:36:12.985Z,23.70
2023-06-17T12:42:08.108Z,24.30
2023-06-17T12:48:01.743Z,24.20
2023-06-17T12:53:55.007Z,23.90
2023-06-17T12:59:49.370Z,23.90
2023-06-17T13:05:42.465Z,23.80
2023-06-17T13:11:37.638Z,23.70
2023-06-17T13:17:32.178Z,23.50
2023-06-17T13:23:25.517Z,23.40
2023-06-17T13:29:18.902Z,23.20
2023-06-17T13:35:14.211Z,23.10
2023-06-17T13:41:08.962Z,23.10
2023-06-17T13:47:02.656Z,22.80
2023-06-17T13:53:00.013Z,22.70
2023-06-17T13:58:53.295Z,22.60
2023-06-17T14:04:46.347Z,23.20
2023-06-17T14:10:41.072Z,23.70
2023-06-17T14:16:34.805Z,24.10
2023-06-17T14:22:28.099Z,24.30
2023-06-17T14:28:22.705Z,24.60
2023-06-17T14:34:15.981Z,24.00
2023-06-17T14:40:10.313Z,23.80
2023-06-17T14:46:04.949Z,23.70
2023-06-17T14:51:58.231Z,24.00
2023-06-17T14:57:51.522Z,24.10
2023-06-17T15:03:46.356Z,24.10
2023-06-17T15:09:41.831Z,24.30
2023-06-17T15:15:35.107Z,23.90
2023-06-17T15:21:29.732Z,23.90
2023-06-17T15:27:23.100Z,24.40
2023-06-17T15:33:16.123Z,24.40
2023-06-17T15:39:21.603Z,24.20
2023-06-17T15:45:14.710Z,24.40
2023-06-17T15:51:08.655Z,24.40
2023-06-17T15:57:05.055Z,24.80
2023-06-17T16:02:58.473Z,24.80
2023-06-17T16:08:52.522Z,24.90
2023-06-17T16:14:48.070Z,24.80
2023-06-17T16:20:41.394Z,24.40
2023-06-17T16:26:34.561Z,24.10
2023-06-17T16:32:29.187Z,23.90
2023-06-17T16:38:22.839Z,23.80
2023-06-17T16:44:16.168Z,23.70
2023-06-17T16:50:11.358Z,23.50
2023-06-17T16:56:04.668Z,23.20
2023-06-17T17:01:58.106Z,23.10
2023-06-17T17:07:52.590Z,22.90
2023-06-17T17:13:49.109Z,22.90
2023-06-17T17:19:43.652Z,22.80
2023-06-17T17:25:38.073Z,22.80
2023-06-17T17:31:31.133Z,22.80
2023-06-17T17:37:24.516Z,22.80
2023-06-17T17:43:20.216Z,22.80
2023-06-17T17:49:13.243Z,22.80
2023-06-17T17:55:06.997Z,22.70
2023-06-17T18:01:03.322Z,22.70
2023-06-17T18:06:56.576Z,22.70
2023-06-17T18:12:49.834Z,22.70
2023-06-17T18:18:44.709Z,22.60
2023-06-17T18:24:38.170Z,22.50
2023-06-17T18:30:31.497Z,22.50
2023-06-17T18:36:26.487Z,22.40
2023-06-17T18:42:19.701Z,22.50
2023-06-17T18:48:12.751Z,22.40
2023-06-17T18:54:07.809Z,22.40
2023-06-17T19:00:01.180Z,22.40
2023-06-17T19:05:54.300Z,22.40
2023-06-17T19:11:48.785Z,22.30
2023-06-17T19:17:41.881Z,22.30
2023-06-17T19:23:35.214Z,22.30
2023-06-17T19:29:29.945Z,22.20
2023-06-17T19:35:23.005Z,22.10
2023-06-17T19:41:16.073Z,22.00
2023-06-17T19:47:10.592Z,21.90
2023-06-17T19:53:04.131Z,21.80
2023-06-17T19:58:57.640Z,21.80
2023-06-17T20:04:52.265Z,21.60
2023-06-17T20:10:45.497Z,21.50
2023-06-17T20:16:38.824Z,21.40
2023-06-17T20:22:33.224Z,21.20
2023-06-17T20:28:26.613Z,21.10
2023-06-17T20:34:21.581Z,21.00
2023-06-17T20:40:17.396Z,20.90
2023-06-17T20:46:10.848Z,20.80
2023-06-17T20:52:04.200Z,20.80
2023-06-17T20:57:59.215Z,20.60
2023-06-17T21:03:52.270Z,20.40
2023-06-17T21:09:45.629Z,20.30
2023-06-17T21:15:40.293Z,20.20
2023-06-17T21:21:33.642Z,20.20
2023-06-17T21:27:27.183Z,20.20
2023-06-17T21:33:22.025Z,20.10
2023-06-17T21:39:15.194Z,20.00
2023-06-17T21:45:09.981Z,19.80
2023-06-17T21:51:04.709Z,19.70
2023-06-17T21:56:58.063Z,19.70
2023-06-17T22:02:51.458Z,19.50
2023-06-17T22:08:45.961Z,19.40
2023-06-17T22:14:39.193Z,19.40
2023-06-17T22:20:32.419Z,19.40
2023-06-17T22:26:28.696Z,19.70
2023-06-17T22:32:21.955Z,19.30
2023-06-17T22:38:16.883Z,19.20
2023-06-17T22:44:11.360Z,19.10
2023-06-17T22:50:07.530Z,18.90
2023-06-17T22:56:00.732Z,18.90
2023-06-17T23:01:55.129Z,18.50
2023-06-17T23:07:48.287Z,18.50
2023-06-17T23:13:41.352Z,18.50
2023-06-17T23:19:35.787Z,18.40
2023-06-17T23:25:28.885Z,18.90
2023-06-17T23:31:22.078Z,18.70
2023-06-17T23:37:19.133Z,18.70
2023-06-17T23:43:12.299Z,18.50
2023-06-17T23:49:05.468Z,18.80
2023-06-17T23:55:02.281Z,18.60
